Time;durP1;ratioP1;P1;durP2;ratioP2;P2;SDS_P1;SDS_P2;PMS_P1;PMS_P2;Temp;Humidity;BMP_temperature;BMP_pressure;BME280_temperature;BME280_humidity;BME280_pressure;Samples;Min_cycle;Max_cycle;Signal;HPM_P1;HPM_P2
2023/11/10 00:02:22;;;;;;;;;;;;;;;16.06;nan;100086.41;5062149;28;19930;-88
2023/11/10 00:04:51;;;;;;;;;;;;;;;16.04;nan;100084.00;5067271;28;19916;-90
2023/11/10 00:07:17;;;;;;;;;;;;;;;16.02;nan;100081.63;5071660;28;19920;-87
2023/11/10 00:09:43;;;;;;;;;;;;;;;16.04;nan;100088.63;5066492;28;19923;-88
2023/11/10 00:12:09;;;;;;;;;;;;;;;16.00;nan;100086.53;5059951;28;19917;-87
2023/11/10 00:14:34;;;;;;;;;;;;;;;16.00;nan;100077.63;5062920;28;19970;-86
2023/11/10 00:17:00;;;;;;;;;;;;;;;15.98;nan;100075.22;5065651;28;19920;-87
2023/11/10 00:19:26;;;;;;;;;;;;;;;15.97;nan;100073.59;5062572;28;20026;-87
2023/11/10 00:21:52;;;;;;;;;;;;;;;16.01;nan;100077.31;5064321;28;19928;-86
2023/11/10 00:24:17;;;;;;;;;;;;;;;15.99;nan;100060.59;5062726;28;19921;-87
2023/11/10 00:26:44;;;;;;;;;;;;;;;16.00;nan;100061.41;5062351;28;20203;-85
2023/11/10 00:29:10;;;;;;;;;;;;;;;15.95;nan;100059.59;5063744;28;20292;-86
2023/11/10 00:31:35;;;;;;;;;;;;;;;15.92;nan;100052.09;5064456;28;19920;-87
2023/11/10 00:34:01;;;;;;;;;;;;;;;15.93;nan;100058.28;5064421;28;20001;-86
2023/11/10 00:36:26;;;;;;;;;;;;;;;15.93;nan;100059.09;5063376;28;19924;-87
2023/11/10 00:38:51;;;;;;;;;;;;;;;15.88;nan;100055.69;5065038;28;19916;-87
2023/11/10 00:41:19;;;;;;;;;;;;;;;15.87;nan;100057.59;5064847;28;19920;-87
2023/11/10 00:43:44;;;;;;;;;;;;;;;15.89;nan;100055.38;5064506;28;19924;-86
2023/11/10 00:46:09;;;;;;;;;;;;;;;15.87;nan;100056.78;5058997;28;19920;-87
2023/11/10 00:48:35;;;;;;;;;;;;;;;15.83;nan;100053.91;5065283;28;19971;-87
2023/11/10 00:51:01;;;;;;;;;;;;;;;15.85;nan;100053.59;5066183;28;19917;-87
2023/11/10 00:53:27;;;;;;;;;;;;;;;15.80;nan;100050.97;5062426;28;20289;-87
2023/11/10 00:55:53;;;;;;;;;;;;;;;15.85;nan;100059.78;5068355;28;19947;-87
2023/11/10 00:58:19;;;;;;;;;;;;;;;15.86;nan;100058.69;5057593;28;19924;-86
2023/11/10 01:00:44;;;;;;;;;;;;;;;15.86;nan;100055.19;5068719;28;19927;-87
2023/11/10 01:03:10;;;;;;;;;;;;;;;15.87;nan;100060.28;5063397;28;19920;-87
2023/11/10 01:05:36;;;;;;;;;;;;;;;15.91;nan;100058.59;5065660;28;20062;-86
2023/11/10 01:08:01;;;;;;;;;;;;;;;15.93;nan;100067.19;5067509;28;20384;-87
2023/11/10 01:10:26;;;;;;;;;;;;;;;15.94;nan;100057.97;5067074;28;20429;-86
2023/11/10 01:12:52;;;;;;;;;;;;;;;15.94;nan;100068.78;5069090;28;20482;-87
2023/11/10 01:15:17;;;;;;;;;;;;;;;15.93;nan;100067.19;5065901;28;20575;-87
2023/11/10 01:17:43;;;;;;;;;;;;;;;16.00;nan;100067.59;5067251;28;20431;-89
2023/11/10 01:20:10;;;;;;;;;;;;;;;15.97;nan;100062.78;5063915;28;19999;-87
2023/11/10 01:22:36;;;;;;;;;;;;;;;15.95;nan;100062.28;5068790;28;19920;-88
2023/11/10 01:25:02;;;;;;;;;;;;;;;15.90;nan;100067.78;5065378;28;19924;-88
2023/11/10 01:27:29;;;;;;;;;;;;;;;15.89;nan;100058.09;5064557;28;19959;-87
2023/11/10 01:29:54;;;;;;;;;;;;;;;15.85;nan;100049.00;5065108;28;19978;-87
2023/11/10 01:32:20;;;;;;;;;;;;;;;15.90;nan;100059.69;5062075;28;19925;-88
2023/11/10 01:34:45;;;;;;;;;;;;;;;15.90;nan;100050.78;5063380;28;19964;-87
2023/11/10 01:37:11;;;;;;;;;;;;;;;15.92;nan;100048.56;5063203;28;21632;-87
2023/11/10 01:39:37;;;;;;;;;;;;;;;15.91;nan;100046.97;5063994;28;19960;-86
2023/11/10 01:42:04;;;;;;;;;;;;;;;15.89;nan;100044.59;5079275;28;20011;-86
2023/11/10 01:44:29;;;;;;;;;;;;;;;15.86;nan;100049.78;5065406;28;19925;-86
2023/11/10 01:46:55;;;;;;;;;;;;;;;15.87;nan;100041.38;5066893;28;19923;-88
2023/11/10 01:49:21;;;;;;;;;;;;;;;15.77;nan;100030.75;5065723;28;19998;-87
2023/11/10 01:51:53;;;;;;;;;;;;;;;15.76;nan;100029.16;5068766;28;20015;-88
2023/11/10 01:54:23;;;;;;;;;;;;;;;15.78;nan;100018.84;5066144;28;19920;-87
2023/11/10 01:56:50;;;;;;;;;;;;;;;15.81;nan;100017.47;5065879;28;19917;-87
2023/11/10 01:59:16;;;;;;;;;;;;;;;15.80;nan;100021.25;5065540;28;20446;-88
2023/11/10 02:01:41;;;;;;;;;;;;;;;15.78;nan;100020.75;5067873;28;19920;-87
2023/11/10 02:04:12;;;;;;;;;;;;;;;15.73;nan;100016.25;5061864;28;19923;-88
2023/11/10 02:06:40;;;;;;;;;;;;;;;15.75;nan;100018.66;5065460;28;19924;-88
2023/11/10 02:09:05;;;;;;;;;;;;;;;15.76;nan;100012.16;5064238;28;19939;-88
2023/11/10 02:11:31;;;;;;;;;;;;;;;15.73;nan;100018.97;5064329;28;20864;-89
2023/11/10 02:14:03;;;;;;;;;;;;;;;15.68;nan;100010.97;5065204;28;19939;-86
2023/11/10 02:16:29;;;;;;;;;;;;;;;15.61;nan;100010.56;5063768;28;19920;-87
2023/11/10 02:18:55;;;;;;;;;;;;;;;15.54;nan;100010.13;5067246;28;19917;-87
2023/11/10 02:21:20;;;;;;;;;;;;;;;15.52;nan;100006.94;5064080;28;19984;-87
2023/11/10 02:23:46;;;;;;;;;;;;;;;15.48;nan;100016.72;5066299;28;20007;-87
2023/11/10 02:26:12;;;;;;;;;;;;;;;15.43;nan;100023.78;5064915;28;19924;-87
2023/11/10 02:28:40;;;;;;;;;;;;;;;15.38;nan;100029.28;5070356;28;19916;-87
2023/11/10 02:31:05;;;;;;;;;;;;;;;15.33;nan;100025.91;5067652;28;19924;-88
2023/11/10 02:33:31;;;;;;;;;;;;;;;15.28;nan;100024.09;5062193;28;19927;-88
2023/11/10 02:35:57;;;;;;;;;;;;;;;15.30;nan;100027.28;5062570;28;19925;-88
2023/11/10 02:38:22;;;;;;;;;;;;;;;15.29;nan;100022.19;5065070;28;20434;-88
2023/11/10 02:40:47;;;;;;;;;;;;;;;15.24;nan;100023.06;5063032;28;19920;-87
2023/11/10 02:43:13;;;;;;;;;;;;;;;15.19;nan;100020.47;5064678;28;20471;-88
2023/11/10 02:45:39;;;;;;;;;;;;;;;15.17;nan;100011.84;5061027;28;20380;-86
2023/11/10 02:48:04;;;;;;;;;;;;;;;15.16;nan;100015.66;5064281;28;19943;-88
2023/11/10 02:50:29;;;;;;;;;;;;;;;15.13;nan;100010.84;5065284;28;19924;-88
2023/11/10 02:52:55;;;;;;;;;;;;;;;15.11;nan;100019.25;5065012;28;19922;-87
2023/11/10 02:55:20;;;;;;;;;;;;;;;15.12;nan;100009.25;5061498;28;19935;-87
2023/11/10 02:57:45;;;;;;;;;;;;;;;15.09;nan;100001.75;5064220;28;19916;-88
2023/11/10 03:00:11;;;;;;;;;;;;;;;15.08;nan;99994.72;5066881;28;19924;-86
2023/11/10 03:02:36;;;;;;;;;;;;;;;15.07;nan;100001.22;5062155;28;19963;-88
2023/11/10 03:05:02;;;;;;;;;;;;;;;15.10;nan;99995.25;5062282;28;19920;-87
2023/11/10 03:07:27;;;;;;;;;;;;;;;15.14;nan;99995.47;5065416;28;20342;-87
2023/11/10 03:09:53;;;;;;;;;;;;;;;15.14;nan;99990.06;5075201;28;19913;-87
2023/11/10 03:12:18;;;;;;;;;;;;;;;15.18;nan;99986.47;5067707;28;19924;-88
2023/11/10 03:14:43;;;;;;;;;;;;;;;15.19;nan;99987.28;5068156;28;20058;-87
2023/11/10 03:17:09;;;;;;;;;;;;;;;15.20;nan;99980.78;5068097;28;19955;-88
2023/11/10 03:19:34;;;;;;;;;;;;;;;15.21;nan;99983.19;5067849;28;19917;-86
2023/11/10 03:21:59;;;;;;;;;;;;;;;15.22;nan;99987.47;5069713;28;20693;-87
2023/11/10 03:24:25;;;;;;;;;;;;;;;15.24;nan;99990.69;5065158;28;20522;-88
2023/11/10 03:26:50;;;;;;;;;;;;;;;15.22;nan;99986.69;5065775;28;19936;-87
2023/11/10 03:29:15;;;;;;;;;;;;;;;15.22;nan;99986.69;5068539;28;19917;-87
2023/11/10 03:31:41;;;;;;;;;;;;;;;15.24;nan;99979.88;5065658;28;19955;-87
2023/11/10 03:34:07;;;;;;;;;;;;;;;15.28;nan;99977.41;5065791;28;19917;-87
2023/11/10 03:36:34;;;;;;;;;;;;;;;15.25;nan;99976.09;5065597;28;20060;-88
2023/11/10 03:38:59;;;;;;;;;;;;;;;15.21;nan;99968.88;5067849;28;19932;-87
2023/11/10 03:41:25;;;;;;;;;;;;;;;15.21;nan;99958.91;5067818;28;20441;-88
2023/11/10 03:43:50;;;;;;;;;;;;;;;15.20;nan;99962.69;5067822;28;19924;-88
2023/11/10 03:46:15;;;;;;;;;;;;;;;15.22;nan;99960.50;5063410;28;19962;-87
2023/11/10 03:48:41;;;;;;;;;;;;;;;15.20;nan;99968.09;5065463;28;19924;-88
2023/11/10 03:51:08;;;;;;;;;;;;;;;15.17;nan;99954.41;5068261;28;19920;-87
2023/11/10 03:53:34;;;;;;;;;;;;;;;15.13;nan;99951.50;5067769;28;20599;-87
2023/11/10 03:56:00;;;;;;;;;;;;;;;15.12;nan;99944.50;5064976;28;20023;-88
2023/11/10 03:58:25;;;;;;;;;;;;;;;15.13;nan;99950.69;5064552;28;20348;-89
2023/11/10 04:00:51;;;;;;;;;;;;;;;15.11;nan;99954.50;5062936;28;19921;-87
2023/11/10 04:03:16;;;;;;;;;;;;;;;15.11;nan;99945.59;5065723;28;19925;-87
2023/11/10 04:05:44;;;;;;;;;;;;;;;15.07;nan;99952.66;5067968;28;19932;-88
2023/11/10 04:08:09;;;;;;;;;;;;;;;15.02;nan;99952.75;5064890;28;19927;-88
2023/11/10 04:10:36;;;;;;;;;;;;;;;14.98;nan;99951.75;5068206;28;20094;-86
2023/11/10 04:13:02;;;;;;;;;;;;;;;14.93;nan;99947.25;5065452;28;19925;-87
2023/11/10 04:15:27;;;;;;;;;;;;;;;14.93;nan;99944.56;5063432;28;19927;-87
2023/11/10 04:17:52;;;;;;;;;;;;;;;14.95;nan;99939.69;5066211;28;20452;-87
2023/11/10 04:20:19;;;;;;;;;;;;;;;14.94;nan;99934.56;5059984;28;19942;-88
2023/11/10 04:22:44;;;;;;;;;;;;;;;14.96;nan;99940.47;5065960;28;19920;-88
2023/11/10 04:25:10;;;;;;;;;;;;;;;14.98;nan;99943.66;5065993;28;19924;-87
2023/11/10 04:27:36;;;;;;;;;;;;;;;14.97;nan;99950.97;5069088;28;20381;-87
2023/11/10 04:30:01;;;;;;;;;;;;;;;14.93;nan;99941.88;5066148;28;19924;-87
2023/11/10 04:32:27;;;;;;;;;;;;;;;14.90;nan;99945.16;5064722;28;19924;-89
2023/11/10 04:34:54;;;;;;;;;;;;;;;14.85;nan;99953.31;5065368;28;19971;-86
2023/11/10 04:37:19;;;;;;;;;;;;;;;14.77;nan;99949.41;5063666;28;19935;-87
2023/11/10 04:39:45;;;;;;;;;;;;;;;14.75;nan;99956.19;5060862;28;19916;-88
2023/11/10 04:42:10;;;;;;;;;;;;;;;14.75;nan;99954.31;5066106;28;20295;-88
2023/11/10 04:44:36;;;;;;;;;;;;;;;14.71;nan;99955.97;5062955;28;19917;-87
2023/11/10 04:47:02;;;;;;;;;;;;;;;14.70;nan;99962.44;5071872;28;19924;-88
2023/11/10 04:49:27;;;;;;;;;;;;;;;14.68;nan;99953.06;5061222;28;19939;-88
2023/11/10 04:51:52;;;;;;;;;;;;;;;14.72;nan;99963.00;5069183;28;19932;-88
2023/11/10 04:54:18;;;;;;;;;;;;;;;14.74;nan;99963.50;5064033;28;19928;-88
2023/11/10 04:56:44;;;;;;;;;;;;;;;14.75;nan;99954.31;5069893;28;19931;-86
2023/11/10 04:59:10;;;;;;;;;;;;;;;14.77;nan;99948.63;5061925;28;19916;-87
2023/11/10 05:01:39;;;;;;;;;;;;;;;14.78;nan;99956.41;5063544;28;19920;-88
2023/11/10 05:04:05;;;;;;;;;;;;;;;14.80;nan;99962.31;5055706;28;19921;-86
2023/11/10 05:06:33;;;;;;;;;;;;;;;14.80;nan;99962.31;5058907;28;19947;-88
2023/11/10 05:08:59;;;;;;;;;;;;;;;14.79;nan;99958.00;5065507;28;19920;-88
2023/11/10 05:11:25;;;;;;;;;;;;;;;14.82;nan;99957.41;5062315;28;20467;-87
2023/11/10 05:13:50;;;;;;;;;;;;;;;14.80;nan;99959.59;5067456;28;19927;-87
2023/11/10 05:16:16;;;;;;;;;;;;;;;14.81;nan;99947.72;5065237;28;19925;-86
2023/11/10 05:18:42;;;;;;;;;;;;;;;14.85;nan;99947.13;5067156;28;19920;-90
2023/11/10 05:21:07;;;;;;;;;;;;;;;14.90;nan;99947.88;5060272;28;19928;-87
2023/11/10 05:23:32;;;;;;;;;;;;;;;14.93;nan;99947.25;5056063;28;19924;-87
2023/11/10 05:25:58;;;;;;;;;;;;;;;14.95;nan;99949.66;5066570;28;19924;-88
2023/11/10 05:28:23;;;;;;;;;;;;;;;14.97;nan;99948.25;5064210;28;19951;-86
2023/11/10 05:30:49;;;;;;;;;;;;;;;15.00;nan;99946.88;5071379;28;20042;-88
2023/11/10 05:33:14;;;;;;;;;;;;;;;14.97;nan;99953.66;5067141;28;19916;-86
2023/11/10 05:35:40;;;;;;;;;;;;;;;14.96;nan;99956.66;5064976;28;19978;-87
2023/11/10 05:38:07;;;;;;;;;;;;;;;14.91;nan;99960.25;5065023;28;19923;-87
2023/11/10 05:40:33;;;;;;;;;;;;;;;14.90;nan;99968.59;5062408;28;19931;-87
2023/11/10 05:42:58;;;;;;;;;;;;;;;14.87;nan;99961.13;5071074;28;20634;-87
2023/11/10 05:45:24;;;;;;;;;;;;;;;14.84;nan;99959.00;5064531;28;20373;-88
2023/11/10 05:47:49;;;;;;;;;;;;;;;14.85;nan;99958.72;5061529;28;19927;-86
2023/11/10 05:50:16;;;;;;;;;;;;;;;14.87;nan;99958.41;5065657;28;20395;-88
2023/11/10 05:52:41;;;;;;;;;;;;;;;14.88;nan;99968.09;5060906;28;19920;-87
2023/11/10 05:55:08;;;;;;;;;;;;;;;14.82;nan;99962.00;5065720;28;19920;-87
2023/11/10 05:57:33;;;;;;;;;;;;;;;14.81;nan;99963.91;5058874;28;19923;-87
2023/11/10 05:59:59;;;;;;;;;;;;;;;14.81;nan;99966.59;5062939;28;20007;-86
2023/11/10 06:02:25;;;;;;;;;;;;;;;14.77;nan;99973.69;5065920;28;20291;-87
2023/11/10 06:04:52;;;;;;;;;;;;;;;14.77;nan;99979.06;5061081;28;19931;-86
2023/11/10 06:07:17;;;;;;;;;;;;;;;14.77;nan;99979.06;5060893;28;19934;-87
2023/11/10 06:09:43;;;;;;;;;;;;;;;14.77;nan;99987.16;5065572;28;19925;-87
2023/11/10 06:12:08;;;;;;;;;;;;;;;14.77;nan;99989.88;5061183;28;19920;-88
2023/11/10 06:14:34;;;;;;;;;;;;;;;14.78;nan;99993.34;5071919;28;19929;-88
2023/11/10 06:16:59;;;;;;;;;;;;;;;14.81;nan;99990.88;5065793;28;19917;-86
2023/11/10 06:19:25;;;;;;;;;;;;;;;14.81;nan;99998.97;5061797;28;20657;-87
2023/11/10 06:21:52;;;;;;;;;;;;;;;14.81;nan;99992.75;5063187;28;19932;-87
2023/11/10 06:24:19;;;;;;;;;;;;;;;14.80;nan;99991.16;5058005;28;20616;-87
2023/11/10 06:26:45;;;;;;;;;;;;;;;14.81;nan;99993.56;5061872;28;19924;-88
2023/11/10 06:29:12;;;;;;;;;;;;;;;14.80;nan;99996.56;5060846;28;20378;-88
2023/11/10 06:31:37;;;;;;;;;;;;;;;14.77;nan;99992.56;5061769;28;20015;-88
2023/11/10 06:34:03;;;;;;;;;;;;;;;14.73;nan;99996.94;5052953;28;20035;-87
2023/11/10 06:36:29;;;;;;;;;;;;;;;14.74;nan;99993.16;5062344;28;20384;-87
2023/11/10 06:38:54;;;;;;;;;;;;;;;14.79;nan;100006.53;5067032;28;19918;-87
2023/11/10 06:41:19;;;;;;;;;;;;;;;14.80;nan;100007.34;5064144;28;19921;-87
2023/11/10 06:43:45;;;;;;;;;;;;;;;14.79;nan;100008.44;5063003;28;19920;-87
2023/11/10 06:46:11;;;;;;;;;;;;;;;14.80;nan;100010.84;5062811;28;20022;-87
2023/11/10 06:48:36;;;;;;;;;;;;;;;14.76;nan;100017.94;5065117;28;19930;-87
2023/11/10 06:51:02;;;;;;;;;;;;;;;14.81;nan;100015.13;5064455;28;19931;-87
2023/11/10 06:53:27;;;;;;;;;;;;;;;14.82;nan;100019.44;5069256;28;19920;-87
2023/11/10 06:55:53;;;;;;;;;;;;;;;14.87;nan;100017.75;5062050;28;19930;-87
2023/11/10 06:58:19;;;;;;;;;;;;;;;14.87;nan;100021.25;5063936;28;19916;-87
2023/11/10 07:00:48;;;;;;;;;;;;;;;14.88;nan;100025.53;5070649;28;19920;-88
2023/11/10 07:03:16;;;;;;;;;;;;;;;14.90;nan;100025.25;5072080;28;19916;-87
2023/11/10 07:05:42;;;;;;;;;;;;;;;14.88;nan;100020.16;5068840;28;19943;-87
2023/11/10 07:08:09;;;;;;;;;;;;;;;14.89;nan;100016.34;5067715;28;20412;-86
2023/11/10 07:10:41;;;;;;;;;;;;;;;14.85;nan;100017.25;5066346;28;20048;-87
2023/11/10 07:13:10;;;;;;;;;;;;;;;14.85;nan;100030.72;5067193;28;19969;-88
2023/11/10 07:15:35;;;;;;;;;;;;;;;14.87;nan;100023.16;5070583;28;19925;-87
2023/11/10 07:18:02;;;;;;;;;;;;;;;14.88;nan;100013.97;5065550;28;20187;-86
2023/11/10 07:20:28;;;;;;;;;;;;;;;14.90;nan;100015.28;5066794;28;19921;-87
2023/11/10 07:22:54;;;;;;;;;;;;;;;14.93;nan;100024.69;5068690;28;19923;-86
2023/11/10 07:25:19;;;;;;;;;;;;;;;14.96;nan;100026.78;5067966;28;19924;-88
2023/11/10 07:27:44;;;;;;;;;;;;;;;14.95;nan;100036.78;5067674;28;19916;-87
2023/11/10 07:30:10;;;;;;;;;;;;;;;14.91;nan;100034.97;5066931;28;20399;-88
2023/11/10 07:32:35;;;;;;;;;;;;;;;14.89;nan;100026.34;5071862;28;19969;-87
2023/11/10 07:35:05;;;;;;;;;;;;;;;14.93;nan;100016.59;5070738;28;20372;-87
2023/11/10 07:37:34;;;;;;;;;;;;;;;14.97;nan;100023.00;5065692;28;19923;-87
2023/11/10 07:40:00;;;;;;;;;;;;;;;14.99;nan;100020.81;5070970;28;19917;-87
2023/11/10 07:42:25;;;;;;;;;;;;;;;15.03;nan;100029.91;5064548;28;20053;-87
2023/11/10 07:44:51;;;;;;;;;;;;;;;15.02;nan;100020.22;5060485;28;19925;-87
2023/11/10 07:47:16;;;;;;;;;;;;;;;15.05;nan;100027.69;5065856;28;19963;-87
2023/11/10 07:49:42;;;;;;;;;;;;;;;15.07;nan;100028.22;5069901;28;20023;-87
2023/11/10 07:52:08;;;;;;;;;;;;;;;15.11;nan;100031.94;5068917;28;19920;-87
2023/11/10 07:54:34;;;;;;;;;;;;;;;15.16;nan;100031.84;5064669;28;19927;-88
2023/11/10 07:57:00;;;;;;;;;;;;;;;15.20;nan;100032.84;5066699;28;19916;-87
2023/11/10 07:59:26;;;;;;;;;;;;;;;15.25;nan;100030.06;5067494;28;20683;-87
2023/11/10 08:01:52;;;;;;;;;;;;;;;15.32;nan;100040.50;5067752;28;19928;-88
2023/11/10 08:04:17;;;;;;;;;;;;;;;15.39;nan;100036.28;5064981;28;20580;-88
2023/11/10 08:06:43;;;;;;;;;;;;;;;15.46;nan;100041.31;5067831;28;19916;-86
2023/11/10 08:09:11;;;;;;;;;;;;;;;15.46;nan;100041.31;5069050;28;20005;-87
2023/11/10 08:11:37;;;;;;;;;;;;;;;15.46;nan;100032.44;5068209;28;19917;-86
2023/11/10 08:14:03;;;;;;;;;;;;;;;15.41;nan;100034.09;5061450;28;19953;-88
2023/11/10 08:16:29;;;;;;;;;;;;;;;15.35;nan;100034.50;5068113;28;20078;-87
2023/11/10 08:18:54;;;;;;;;;;;;;;;15.32;nan;100037.78;5063509;28;20507;-87
2023/11/10 08:21:20;;;;;;;;;;;;;;;15.31;nan;100042.38;5065413;28;19978;-88
2023/11/10 08:23:46;;;;;;;;;;;;;;;15.32;nan;100045.88;5068882;28;19921;-88
2023/11/10 08:26:13;;;;;;;;;;;;;;;15.29;nan;100035.69;5063398;28;19917;-88
2023/11/10 08:53:25;;;;;;;;;;;;;;;15.34;nan;100039.09;5057425;28;19966;-88
2023/11/10 08:55:51;;;;;;;;;;;;;;;15.32;nan;100030.50;5067355;28;20739;-88
2023/11/10 08:58:18;;;;;;;;;;;;;;;15.35;nan;100035.28;5047645;28;19933;-88
2023/11/10 09:00:43;;;;;;;;;;;;;;;15.38;nan;100034.69;5014789;28;19918;-88
2023/11/10 09:03:09;;;;;;;;;;;;;;;15.42;nan;100035.69;5001555;28;19917;-88
2023/11/10 09:05:34;;;;;;;;;;;;;;;15.51;nan;100033.13;5002548;28;19918;-88
2023/11/10 09:08:00;;;;;;;;;;;;;;;15.54;nan;100043.31;5002143;28;19925;-87
2023/11/10 09:10:25;;;;;;;;;;;;;;;15.62;nan;100039.19;5003045;28;19957;-87
2023/11/10 09:12:50;;;;;;;;;;;;;;;15.74;nan;100038.66;5008595;28;19925;-88
2023/11/10 09:15:16;;;;;;;;;;;;;;;15.74;nan;100036.78;5002499;28;20286;-87
2023/11/10 09:17:58;;;;;;;;;;;;;;;15.73;nan;100037.88;5008791;28;20439;-87
2023/11/10 09:20:23;;;;;;;;;;;;;;;15.71;nan;100045.47;5002468;28;19925;-89
2023/11/10 09:22:49;;;;;;;;;;;;;;;15.70;nan;100047.38;5001840;28;19944;-88
2023/11/10 09:25:16;;;;;;;;;;;;;;;15.71;nan;100056.28;5006430;28;20266;-87
2023/11/10 09:27:42;;;;;;;;;;;;;;;15.67;nan;100057.97;5005162;28;20023;-87
2023/11/10 09:30:08;;;;;;;;;;;;;;;15.71;nan;100062.47;5004688;28;19917;-89
2023/11/10 09:32:33;;;;;;;;;;;;;;;15.70;nan;100062.78;5002128;28;19924;-89
2023/11/10 09:34:58;;;;;;;;;;;;;;;15.78;nan;100059.38;5003934;28;20018;-87
2023/11/10 09:37:23;;;;;;;;;;;;;;;15.89;nan;100055.38;5002827;28;19945;-88
2023/11/10 09:39:50;;;;;;;;;;;;;;;15.99;nan;100063.31;5006720;28;19932;-87
2023/11/10 09:42:16;;;;;;;;;;;;;;;16.09;nan;100061.50;5003387;28;19962;-88
2023/11/10 09:45:01;;;;;;;;;;;;;;;16.18;nan;100055.09;5006029;28;20162;-87
2023/11/10 09:47:27;;;;;;;;;;;;;;;16.23;nan;100054.97;5003329;28;19917;-88
2023/11/10 09:49:53;;;;;;;;;;;;;;;16.38;nan;100053.84;5001120;28;19976;-88
2023/11/10 09:52:20;;;;;;;;;;;;;;;16.50;nan;100051.41;4999286;28;19921;-87
2023/11/10 09:54:48;;;;;;;;;;;;;;;16.59;nan;100046.91;4999053;28;20378;-88
2023/11/10 09:57:14;;;;;;;;;;;;;;;16.73;nan;100044.19;5000399;28;19913;-87
2023/11/10 09:59:41;;;;;;;;;;;;;;;16.84;nan;100042.03;4996941;28;19961;-87
2023/11/10 10:02:10;;;;;;;;;;;;;;;16.95;nan;100040.69;5003155;28;19917;-88
2023/11/10 10:04:36;;;;;;;;;;;;;;;17.03;nan;100034.53;5014005;28;19921;-87
2023/11/10 10:07:01;;;;;;;;;;;;;;;17.06;nan;100033.94;5002277;28;19921;-87
2023/11/10 10:09:27;;;;;;;;;;;;;;;17.04;nan;100038.81;5002636;28;19914;-87
2023/11/10 10:11:56;;;;;;;;;;;;;;;17.04;nan;100035.31;5003851;28;19918;-87
2023/11/10 10:14:21;;;;;;;;;;;;;;;17.06;nan;100031.22;4999892;28;20005;-87
2023/11/10 10:16:51;;;;;;;;;;;;;;;17.10;nan;100024.09;4999106;28;20013;-88
2023/11/10 10:19:32;;;;;;;;;;;;;;;17.20;nan;100021.09;4999924;28;19972;-87
2023/11/10 10:21:59;;;;;;;;;;;;;;;17.20;nan;100017.59;5001408;28;19979;-87
2023/11/10 10:24:24;;;;;;;;;;;;;;;17.15;nan;100015.81;5002876;28;20431;-88
2023/11/10 10:26:51;;;;;;;;;;;;;;;17.15;nan;100015.81;5003415;28;19928;-88
2023/11/10 10:29:18;;;;;;;;;;;;;;;17.20;nan;100018.41;5001224;28;19918;-89
2023/11/10 10:31:44;;;;;;;;;;;;;;;17.24;nan;100012.38;5000355;28;20534;-88
2023/11/10 10:34:10;;;;;;;;;;;;;;;17.28;nan;100016.88;5005293;28;20008;-87
2023/11/10 10:36:38;;;;;;;;;;;;;;;17.41;nan;100020.56;5002433;28;20001;-87
2023/11/10 10:39:11;;;;;;;;;;;;;;;17.48;nan;100015.53;5005250;28;19972;-86
2023/11/10 10:41:38;;;;;;;;;;;;;;;17.50;nan;100005.19;5000568;28;19930;-88
2023/11/10 10:44:04;;;;;;;;;;;;;;;17.49;nan;100014.41;5003612;28;19917;-89
2023/11/10 10:46:33;;;;;;;;;;;;;;;17.48;nan;100012.81;5001413;28;19972;-89
2023/11/10 10:48:59;;;;;;;;;;;;;;;17.47;nan;100012.03;5002320;28;19926;-88
2023/11/10 10:51:27;;;;;;;;;;;;;;;17.50;nan;100010.59;5002970;28;19924;-88
2023/11/10 10:53:53;;;;;;;;;;;;;;;17.63;nan;100001.59;5003508;28;20066;-89
2023/11/10 10:56:20;;;;;;;;;;;;;;;17.75;nan;100007.22;5001732;28;19972;-87
2023/11/10 10:58:45;;;;;;;;;;;;;;;17.87;nan;99998.50;5002223;28;20036;-88
2023/11/10 11:01:11;;;;;;;;;;;;;;;18.02;nan;99995.34;5005528;28;20044;-87
2023/11/10 11:03:49;;;;;;;;;;;;;;;18.19;nan;100001.91;5002351;28;20429;-87
2023/11/10 11:06:20;;;;;;;;;;;;;;;18.27;nan;99996.50;5005991;28;20011;-87
2023/11/10 11:08:52;;;;;;;;;;;;;;;18.28;nan;99989.97;5002955;28;19929;-87
2023/11/10 11:11:23;;;;;;;;;;;;;;;18.23;nan;100005.59;5005446;28;20000;-89
2023/11/10 11:14:09;;;;;;;;;;;;;;;18.28;nan;100000.81;5004129;28;19940;-87
2023/11/10 11:16:37;;;;;;;;;;;;;;;18.35;nan;99998.44;5001630;28;19941;-87
2023/11/10 11:19:03;;;;;;;;;;;;;;;18.31;nan;100007.50;5003505;28;19925;-87
2023/11/10 11:21:29;;;;;;;;;;;;;;;18.29;nan;99994.25;5001209;28;19917;-87
2023/11/10 11:23:56;;;;;;;;;;;;;;;18.23;nan;99995.53;5001977;28;19917;-87
2023/11/10 11:26:23;;;;;;;;;;;;;;;18.18;nan;99993.00;4998612;28;19925;-89
2023/11/10 11:28:48;;;;;;;;;;;;;;;18.11;nan;99981.81;4998724;28;20417;-86
2023/11/10 11:31:13;;;;;;;;;;;;;;;18.00;nan;99985.94;4999610;28;19925;-87
2023/11/10 11:33:51;;;;;;;;;;;;;;;17.99;nan;99990.56;5007233;28;19933;-89
2023/11/10 11:36:18;;;;;;;;;;;;;;;17.96;nan;99979.56;5007896;28;19961;-86
2023/11/10 11:38:43;;;;;;;;;;;;;;;17.91;nan;99977.78;5005934;28;20033;-88
2023/11/10 11:41:09;;;;;;;;;;;;;;;17.93;nan;99972.03;5005979;28;19957;-87
2023/11/10 11:43:34;;;;;;;;;;;;;;;17.93;nan;99977.47;5004309;28;20059;-87
2023/11/10 11:46:01;;;;;;;;;;;;;;;17.94;nan;99977.13;5002466;28;20016;-88
2023/11/10 11:48:26;;;;;;;;;;;;;;;17.90;nan;99969.97;4999656;28;19922;-88
2023/11/10 11:50:52;;;;;;;;;;;;;;;17.97;nan;99973.81;5009959;28;19975;-90
2023/11/10 11:53:21;;;;;;;;;;;;;;;17.97;nan;99976.53;5009163;28;19964;-87
2023/11/10 11:55:51;;;;;;;;;;;;;;;18.12;nan;99976.06;5006245;28;20589;-88
2023/11/10 11:58:16;;;;;;;;;;;;;;;18.21;nan;99967.94;5004549;28;20358;-86
2023/11/10 12:00:42;;;;;;;;;;;;;;;18.28;nan;99972.88;5005648;28;19976;-88
2023/11/10 12:03:07;;;;;;;;;;;;;;;18.33;nan;99968.13;5004173;28;19922;-86
2023/11/10 12:05:33;;;;;;;;;;;;;;;18.38;nan;99970.69;5009097;28;20293;-87
2023/11/10 12:07:58;;;;;;;;;;;;;;;18.33;nan;99972.75;5008916;28;20016;-88
2023/11/10 12:10:28;;;;;;;;;;;;;;;18.25;nan;99976.25;5006470;28;19926;-87
2023/11/10 12:12:53;;;;;;;;;;;;;;;18.21;nan;99970.66;5004704;28;19980;-88
2023/11/10 12:15:19;;;;;;;;;;;;;;;18.18;nan;99968.59;5007840;28;19921;-86
2023/11/10 12:17:44;;;;;;;;;;;;;;;18.19;nan;99972.91;5000552;28;19941;-88
2023/11/10 12:20:10;;;;;;;;;;;;;;;18.24;nan;99977.34;5003852;28;19924;-91
2023/11/10 12:22:35;;;;;;;;;;;;;;;18.27;nan;99974.00;5000167;28;20079;-89
2023/11/10 12:25:02;;;;;;;;;;;;;;;18.32;nan;99971.97;5007118;28;19948;-89
2023/11/10 12:27:27;;;;;;;;;;;;;;;18.37;nan;99971.78;5003558;28;20016;-89
2023/11/10 12:29:53;;;;;;;;;;;;;;;18.43;nan;99978.66;5003629;28;19921;-89
2023/11/10 12:32:18;;;;;;;;;;;;;;;18.36;nan;99972.91;5006631;28;20000;-87
2023/11/10 12:34:45;;;;;;;;;;;;;;;18.37;nan;99966.38;5004596;28;19930;-85
2023/11/10 12:37:12;;;;;;;;;;;;;;;18.42;nan;99968.91;5009555;28;19918;-88
2023/11/10 12:39:38;;;;;;;;;;;;;;;18.38;nan;99962.53;5009081;28;19918;-90
2023/11/10 12:42:05;;;;;;;;;;;;;;;18.38;nan;99973.38;4998230;28;19928;-89
2023/11/10 12:44:31;;;;;;;;;;;;;;;18.39;nan;99971.47;5006261;28;20300;-92
2023/11/10 12:46:58;;;;;;;;;;;;;;;18.41;nan;99970.03;5006879;28;19918;-89
2023/11/10 12:49:24;;;;;;;;;;;;;;;18.46;nan;99970.97;5006925;28;19917;-91
2023/11/10 12:51:50;;;;;;;;;;;;;;;18.47;nan;99972.56;5008017;28;19918;-92
2023/11/10 12:54:19;;;;;;;;;;;;;;;18.52;nan;99975.94;5004681;28;19921;-86
2023/11/10 12:56:45;;;;;;;;;;;;;;;18.50;nan;99977.38;5009547;28;20326;-92
2023/11/10 12:59:10;;;;;;;;;;;;;;;18.45;nan;99969.38;5001423;28;20016;-86
2023/11/10 13:01:36;;;;;;;;;;;;;;;18.35;nan;99965.91;5005718;28;20111;-90
2023/11/10 13:04:03;;;;;;;;;;;;;;;18.29;nan;99956.31;5008302;28;19971;-90
2023/11/10 13:06:28;;;;;;;;;;;;;;;18.25;nan;99960.78;5006718;28;19917;-88
2023/11/10 13:08:54;;;;;;;;;;;;;;;18.19;nan;99964.75;5003615;28;19928;-88
2023/11/10 13:11:19;;;;;;;;;;;;;;;18.13;nan;99974.16;5004243;28;20786;-92
2023/11/10 13:13:44;;;;;;;;;;;;;;;18.07;nan;99976.22;5000159;28;20390;-88
2023/11/10 13:16:10;;;;;;;;;;;;;;;18.07;nan;99976.22;4999767;28;19922;-90
2023/11/10 13:18:35;;;;;;;;;;;;;;;18.08;nan;99982.44;5003499;28;19925;-88
2023/11/10 13:21:01;;;;;;;;;;;;;;;18.09;nan;99984.03;5008002;28;19928;-89
2023/11/10 13:23:27;;;;;;;;;;;;;;;18.01;nan;99987.53;5002573;28;19921;-85